This is the latest recevied weather packets stored in our database for station/object S54A-11. If no packets are shown the sender has not sent any weather packets the latest 10 day(s).
| Time | Temp. | Humidity | Pressure | Rain* | Wind** | Luminosity | Snow |
|---|---|---|---|---|---|---|---|
| 1777527818 | 7.78° C | 54% | 1027.4 hPa | - | - | - | - |
| 1777526918 | 7.22° C | 56% | 1027.4 hPa | - | - | - | - |
| 1777526018 | 5.56° C | 60% | 1027.3 hPa | - | - | - | - |
| 1777525118 | 1.67° C | 64% | 1027.3 hPa | - | - | - | - |
| 1777524218 | 1.11° C | 65% | 1027.3 hPa | - | - | - | - |
| 1777523318 | 1.11° C | 65% | 1027.1 hPa | - | - | - | - |
| 1777522418 | 1.11° C | 64% | 1027 hPa | - | - | - | - |
| 1777521518 | 1.11° C | 62% | 1026.8 hPa | - | - | - | - |
| 1777520618 | 1.11° C | 64% | 1026.8 hPa | - | - | - | - |
| 1777519718 | 1.11° C | 66% | 1026.7 hPa | - | - | - | - |
| 1777518817 | 1.67° C | 68% | 1026.6 hPa | - | - | - | - |
| 1777517917 | 1.67° C | 64% | 1026.7 hPa | - | - | - | - |
| 1777517017 | 1.67° C | 65% | 1026.5 hPa | - | - | - | - |
| 1777516117 | 2.22° C | 62% | 1026.6 hPa | - | - | - | - |
| 1777515217 | 2.22° C | 66% | 1026.6 hPa | - | - | - | - |
| 1777514317 | 2.22° C | 64% | 1026.6 hPa | - | - | - | - |
| 1777513417 | 2.22° C | 65% | 1026.4 hPa | - | - | - | - |
| 1777512517 | 2.78° C | 66% | 1026.4 hPa | - | - | - | - |
| 1777511617 | 2.78° C | 65% | 1026.4 hPa | - | - | - | - |
| 1777510717 | 3.33° C | 65% | 1026.2 hPa | - | - | - | - |
| 1777509817 | 3.33° C | 66% | 1026 hPa | - | - | - | - |
| 1777508917 | 3.89° C | 66% | 1026 hPa | - | - | - | - |
| 1777508017 | 4.44° C | 66% | 1026 hPa | - | - | - | - |
| 1777507117 | 5° C | 65% | 1025.8 hPa | - | - | - | - |
| 1777506217 | 4.44° C | 68% | 1025.7 hPa | - | - | - | - |
* Rain since midnight (hover to see other rain measurements)
** Current wind speed in m/s (hover to see current wind gust speed)